Terminal Aerodrome Forecast
Issued by NWS

Home | Current Version | Previous Version | Text Only | Print | Product List | Glossary On
Versions: 1 2 3 4 5 6 7 8 9 10 11 12 13 14 15 16 17 18
000
FTUS46 KPDT 081736
TAFYKM
TAF
KYKM 081736Z 0818/0918 35010KT P6SM SCT060 OVC080
     FM082300 33008KT 5SM -SN BR SCT015 OVC040
     FM090200 35007KT 1SM -SN BR SCT005 OVC010
     FM090600 32006KT 4SM -SHSNPL OVC015
     FM091500 31005KT 5SM -SHSN SCT010 BKN025=

USA.gov is the U.S. government's official web portal to all federal, state and local government web resources and services.